createdAt,value
2019-03-03T00:00:39.782Z,8.70
2019-03-03T00:03:08.013Z,8.70
2019-03-03T00:05:36.294Z,8.70
2019-03-03T00:08:04.519Z,8.70
2019-03-03T00:10:32.731Z,8.70
2019-03-03T00:13:01.002Z,8.70
2019-03-03T00:15:29.216Z,8.70
2019-03-03T00:17:57.444Z,8.70
2019-03-03T00:20:25.686Z,8.70
2019-03-03T00:22:53.985Z,8.70
2019-03-03T00:25:22.203Z,8.70
2019-03-03T00:27:50.454Z,8.70
2019-03-03T00:30:19.728Z,8.80
2019-03-03T00:32:47.959Z,8.80
2019-03-03T00:35:16.189Z,8.80
2019-03-03T00:37:51.902Z,8.70
2019-03-03T00:40:21.870Z,8.80
2019-03-03T00:42:51.771Z,8.80
2019-03-03T00:45:21.654Z,8.90
2019-03-03T00:47:54.289Z,8.90
2019-03-03T00:50:32.898Z,8.90
2019-03-03T00:53:02.769Z,9.00
2019-03-03T00:55:38.495Z,9.00
2019-03-03T00:58:11.256Z,9.10
2019-03-03T01:00:44.080Z,9.10
2019-03-03T01:03:23.065Z,9.30
2019-03-03T01:06:09.137Z,9.30
2019-03-03T01:08:50.716Z,9.40
2019-03-03T01:11:28.938Z,9.40
2019-03-03T01:14:07.887Z,9.50
2019-03-03T01:16:40.550Z,9.50
2019-03-03T01:19:16.301Z,9.60
2019-03-03T01:21:52.412Z,9.60
2019-03-03T01:24:22.278Z,9.70
2019-03-03T01:26:50.535Z,9.70
2019-03-03T01:29:19.779Z,9.70
2019-03-03T01:31:48.005Z,9.80
2019-03-03T01:34:16.256Z,9.80
2019-03-03T01:36:44.490Z,9.80
2019-03-03T01:39:12.923Z,9.80
2019-03-03T01:41:41.182Z,9.90
2019-03-03T01:44:14.580Z,9.80
2019-03-03T01:46:42.577Z,9.80
2019-03-03T01:49:10.803Z,9.80
2019-03-03T01:51:39.069Z,9.90
2019-03-03T01:54:07.290Z,9.80
2019-03-03T01:56:35.528Z,9.90
2019-03-03T01:59:03.740Z,9.90
2019-03-03T02:01:32.004Z,9.90
2019-03-03T02:04:00.224Z,9.90
2019-03-03T02:06:28.461Z,9.90
2019-03-03T02:08:56.699Z,9.90
2019-03-03T02:11:24.977Z,9.90
2019-03-03T02:13:53.230Z,9.80
2019-03-03T02:16:21.434Z,9.70
2019-03-03T02:18:49.659Z,9.70
2019-03-03T02:21:17.903Z,9.70
2019-03-03T02:23:46.146Z,9.60
2019-03-03T02:26:14.418Z,9.60
2019-03-03T02:28:42.647Z,9.60
2019-03-03T02:31:10.895Z,9.60
2019-03-03T02:33:39.110Z,9.60
2019-03-03T02:36:07.343Z,9.60
2019-03-03T02:38:35.573Z,9.60
2019-03-03T02:41:03.868Z,9.60
2019-03-03T02:43:35.681Z,9.60
2019-03-03T02:46:03.925Z,9.60
2019-03-03T02:48:32.168Z,9.60
2019-03-03T02:51:00.488Z,9.60
2019-03-03T02:53:28.845Z,9.60
2019-03-03T02:55:57.077Z,9.60
2019-03-03T02:58:25.324Z,9.60
2019-03-03T03:00:55.203Z,9.60
2019-03-03T03:03:25.089Z,9.60
2019-03-03T03:05:54.978Z,9.60
2019-03-03T03:08:33.787Z,9.60
2019-03-03T03:11:03.786Z,9.60
2019-03-03T03:13:51.893Z,9.60
2019-03-03T03:16:30.984Z,9.60
2019-03-03T03:19:04.013Z,9.70
2019-03-03T03:21:36.882Z,9.70
2019-03-03T03:24:21.821Z,9.70
2019-03-03T03:26:51.720Z,9.70
2019-03-03T03:29:27.475Z,9.70
2019-03-03T03:32:03.139Z,9.70
2019-03-03T03:34:38.917Z,9.60
2019-03-03T03:37:14.892Z,9.60
2019-03-03T03:40:00.549Z,9.60
2019-03-03T03:42:36.417Z,9.60
2019-03-03T03:45:08.720Z,9.60
2019-03-03T03:47:56.993Z,9.60
2019-03-03T03:50:32.751Z,9.60
2019-03-03T03:53:11.779Z,9.60
2019-03-03T03:55:41.677Z,9.50
2019-03-03T03:58:14.322Z,9.40
2019-03-03T04:00:44.237Z,9.30
2019-03-03T04:03:20.051Z,9.30
2019-03-03T04:06:01.953Z,9.30
2019-03-03T04:08:31.802Z,9.20
2019-03-03T04:11:16.747Z,9.20
2019-03-03T04:13:52.334Z,9.20
2019-03-03T04:16:22.237Z,9.10
2019-03-03T04:18:57.591Z,9.20
2019-03-03T04:21:27.458Z,9.20
2019-03-03T04:24:03.284Z,9.20
2019-03-03T04:29:27.141Z,9.20
2019-03-03T04:34:38.809Z,9.10
2019-03-03T04:37:17.473Z,9.10
2019-03-03T04:39:47.344Z,9.10
2019-03-03T04:42:29.498Z,9.10
2019-03-03T04:44:59.413Z,9.10
2019-03-03T04:47:31.718Z,9.00
2019-03-03T04:50:04.357Z,9.00
2019-03-03T04:52:37.049Z,9.10
2019-03-03T04:55:19.932Z,9.20
2019-03-03T04:57:55.766Z,9.20
2019-03-03T05:00:25.633Z,9.20
2019-03-03T05:03:11.627Z,9.10
2019-03-03T05:05:41.532Z,9.20
2019-03-03T05:08:17.113Z,9.20
2019-03-03T05:10:58.715Z,9.20
2019-03-03T05:13:30.481Z,9.30
2019-03-03T05:15:59.719Z,9.30
2019-03-03T05:18:29.599Z,9.20
2019-03-03T05:20:57.860Z,9.30
2019-03-03T05:23:26.144Z,9.20
2019-03-03T05:25:54.368Z,9.10
2019-03-03T05:28:22.603Z,9.20
2019-03-03T05:30:50.896Z,9.20
2019-03-03T05:33:19.102Z,9.20
2019-03-03T05:35:47.357Z,9.30
2019-03-03T05:38:15.601Z,9.20
2019-03-03T05:40:43.855Z,9.20
2019-03-03T05:43:12.103Z,9.30
2019-03-03T05:45:40.326Z,9.40
2019-03-03T05:48:08.562Z,9.40
2019-03-03T05:50:36.796Z,9.50
2019-03-03T05:53:05.068Z,9.60
2019-03-03T05:55:33.299Z,9.60
2019-03-03T05:58:01.528Z,9.70
2019-03-03T06:00:29.809Z,9.80
2019-03-03T06:02:58.022Z,9.80
2019-03-03T06:05:26.289Z,9.80
2019-03-03T06:07:54.580Z,9.90
2019-03-03T06:10:22.826Z,9.90
2019-03-03T06:12:51.055Z,9.90
2019-03-03T06:15:19.317Z,9.90
2019-03-03T06:17:47.741Z,9.80
2019-03-03T06:20:16.006Z,9.80
2019-03-03T06:22:44.259Z,9.70
2019-03-03T06:25:12.475Z,9.70
2019-03-03T06:27:40.734Z,9.70
2019-03-03T06:30:11.682Z,9.70
2019-03-03T06:32:39.933Z,9.70
2019-03-03T06:35:09.433Z,9.80
2019-03-03T06:37:37.658Z,9.80
2019-03-03T06:40:08.342Z,9.90
2019-03-03T06:42:36.585Z,9.90
2019-03-03T06:45:07.647Z,9.90
2019-03-03T06:47:35.907Z,10.00
2019-03-03T06:50:06.690Z,10.00
2019-03-03T06:52:34.961Z,10.10
2019-03-03T06:55:03.178Z,10.10
2019-03-03T06:57:31.466Z,10.10
2019-03-03T06:59:59.707Z,10.10
2019-03-03T07:02:27.936Z,10.10
2019-03-03T07:04:56.182Z,10.10
2019-03-03T07:07:24.429Z,10.20
2019-03-03T07:09:52.654Z,10.20
2019-03-03T07:12:20.901Z,10.20
2019-03-03T07:14:49.137Z,10.20
2019-03-03T07:17:17.373Z,10.30
2019-03-03T07:19:45.629Z,10.30
2019-03-03T07:22:13.864Z,10.30
2019-03-03T07:24:42.091Z,10.30
2019-03-03T07:27:10.313Z,10.40
2019-03-03T07:29:38.614Z,10.30
2019-03-03T07:32:06.858Z,10.40
2019-03-03T07:34:35.121Z,10.40
2019-03-03T07:37:03.346Z,10.40
2019-03-03T07:39:31.593Z,10.50
2019-03-03T07:41:59.956Z,10.50
2019-03-03T07:44:28.244Z,10.50
2019-03-03T07:46:56.505Z,10.60
2019-03-03T07:49:24.798Z,10.60
2019-03-03T07:51:53.039Z,10.60
2019-03-03T07:54:21.282Z,10.60
2019-03-03T07:56:49.535Z,10.70
2019-03-03T07:59:17.758Z,10.70
2019-03-03T08:01:46.036Z,10.70
2019-03-03T08:04:14.280Z,10.70
2019-03-03T08:06:42.548Z,10.70
2019-03-03T08:09:10.794Z,10.60
2019-03-03T08:11:39.051Z,10.70
2019-03-03T08:14:07.269Z,10.70
2019-03-03T08:16:35.540Z,10.60
2019-03-03T08:19:03.758Z,10.60
2019-03-03T08:21:31.966Z,10.60
2019-03-03T08:24:00.252Z,10.40
2019-03-03T08:26:28.477Z,10.30
2019-03-03T08:28:56.712Z,10.20
2019-03-03T08:31:24.948Z,10.10
2019-03-03T08:33:53.185Z,10.00
2019-03-03T08:36:21.440Z,9.90
2019-03-03T08:38:49.748Z,9.90
2019-03-03T08:41:17.967Z,9.90
2019-03-03T08:43:47.824Z,9.90
2019-03-03T08:46:20.787Z,9.90
2019-03-03T08:48:59.774Z,9.80
2019-03-03T08:51:44.662Z,9.80
2019-03-03T08:54:17.226Z,9.80
2019-03-03T08:56:55.954Z,9.80
2019-03-03T08:59:40.930Z,9.80
2019-03-03T09:02:10.859Z,9.80
2019-03-03T09:04:57.154Z,9.80
2019-03-03T09:07:27.060Z,9.90
2019-03-03T09:09:56.943Z,9.90
2019-03-03T09:12:35.827Z,9.90
2019-03-03T09:15:06.940Z,10.00
2019-03-03T09:17:51.835Z,10.00
2019-03-03T09:20:30.945Z,10.00
2019-03-03T09:23:03.553Z,10.00
2019-03-03T09:25:33.586Z,10.00
2019-03-03T09:28:03.469Z,10.00
2019-03-03T09:30:39.606Z,10.00
2019-03-03T09:33:18.719Z,10.00
2019-03-03T09:36:05.278Z,10.10
2019-03-03T09:38:56.055Z,10.10
2019-03-03T09:41:25.986Z,10.10
2019-03-03T09:43:58.540Z,10.10
2019-03-03T09:46:28.411Z,10.10
2019-03-03T09:49:00.998Z,10.10
2019-03-03T09:51:36.555Z,10.10
2019-03-03T09:54:09.360Z,10.20
2019-03-03T09:56:54.189Z,10.20
2019-03-03T09:59:39.226Z,10.20
2019-03-03T10:02:14.629Z,10.20
2019-03-03T10:04:44.520Z,10.20
2019-03-03T10:07:20.093Z,10.20
2019-03-03T10:09:55.367Z,10.30
2019-03-03T10:12:26.709Z,10.30
2019-03-03T10:15:01.830Z,10.40
2019-03-03T10:17:40.542Z,10.40
2019-03-03T10:20:13.902Z,10.40
2019-03-03T10:22:59.027Z,10.40
2019-03-03T10:25:31.554Z,10.40
2019-03-03T10:28:01.515Z,10.40
2019-03-03T10:30:47.502Z,10.40
2019-03-03T10:33:20.390Z,10.40
2019-03-03T10:36:02.265Z,10.40
2019-03-03T10:38:47.494Z,10.40
2019-03-03T10:41:17.421Z,10.50
2019-03-03T10:44:03.596Z,10.50
2019-03-03T10:46:49.733Z,10.60
2019-03-03T10:49:22.322Z,10.70
2019-03-03T10:51:52.211Z,10.70
2019-03-03T10:54:24.640Z,10.90
2019-03-03T10:56:54.561Z,10.90
2019-03-03T10:59:27.445Z,10.90
2019-03-03T11:01:58.864Z,10.90
2019-03-03T11:04:30.611Z,10.90
2019-03-03T11:07:00.515Z,10.80
2019-03-03T11:09:39.439Z,10.90
2019-03-03T11:12:09.325Z,10.80
2019-03-03T11:14:39.804Z,10.80
2019-03-03T11:17:09.649Z,10.80
2019-03-03T11:19:39.530Z,10.80
2019-03-03T11:22:12.096Z,10.90
2019-03-03T11:24:56.989Z,11.00
2019-03-03T11:27:33.039Z,11.10
2019-03-03T11:30:03.950Z,11.10
2019-03-03T11:32:42.270Z,11.30
2019-03-03T11:35:15.118Z,11.20
2019-03-03T11:37:50.743Z,11.40
2019-03-03T11:40:20.646Z,11.40
2019-03-03T11:42:56.490Z,11.50
2019-03-03T11:45:32.384Z,11.50
2019-03-03T11:48:19.690Z,11.70
2019-03-03T11:50:51.694Z,11.70
2019-03-03T11:53:27.370Z,11.70
2019-03-03T11:56:06.009Z,11.70
2019-03-03T11:58:50.952Z,11.80
2019-03-03T12:01:32.529Z,11.80
2019-03-03T12:04:01.746Z,11.90
2019-03-03T12:06:37.806Z,11.90
2019-03-03T12:09:12.229Z,11.90
2019-03-03T12:11:42.090Z,11.90
2019-03-03T12:14:14.677Z,11.80
2019-03-03T12:16:53.891Z,11.80
2019-03-03T12:19:26.478Z,11.80
2019-03-03T12:21:56.326Z,11.90
2019-03-03T12:24:31.968Z,11.90
2019-03-03T12:27:14.030Z,11.90
2019-03-03T12:29:58.970Z,11.80
2019-03-03T12:32:45.317Z,11.90
2019-03-03T12:35:15.201Z,11.90
2019-03-03T12:37:45.100Z,11.80
2019-03-03T12:40:25.154Z,11.80
2019-03-03T12:42:55.015Z,11.70
2019-03-03T12:45:33.913Z,11.80
2019-03-03T12:48:19.918Z,11.80
2019-03-03T12:50:49.815Z,11.80
2019-03-03T12:53:35.830Z,11.80
2019-03-03T12:56:05.706Z,11.70
2019-03-03T12:58:41.700Z,11.70
2019-03-03T13:01:11.580Z,11.70
2019-03-03T13:03:41.433Z,11.70
2019-03-03T13:06:24.262Z,11.70
2019-03-03T13:09:06.815Z,11.70
2019-03-03T13:11:42.417Z,11.70
2019-03-03T13:14:12.291Z,11.70
2019-03-03T13:16:58.622Z,11.60
2019-03-03T13:19:28.490Z,11.60
2019-03-03T13:22:14.781Z,11.60
2019-03-03T13:24:56.684Z,11.60
2019-03-03T13:27:35.404Z,11.60
2019-03-03T13:30:26.967Z,11.60
2019-03-03T13:32:59.476Z,11.60
2019-03-03T13:35:29.352Z,11.60
2019-03-03T13:38:11.384Z,11.60
2019-03-03T13:40:57.554Z,11.60
2019-03-03T13:43:25.834Z,11.60
2019-03-03T13:45:54.048Z,11.60
2019-03-03T13:48:22.293Z,11.60
2019-03-03T13:50:50.506Z,11.60
2019-03-03T13:53:18.741Z,11.60
2019-03-03T13:55:46.973Z,11.60
2019-03-03T13:58:15.220Z,11.60
2019-03-03T14:00:43.466Z,11.70
2019-03-03T14:03:13.337Z,11.70
2019-03-03T14:05:41.586Z,11.70
2019-03-03T14:08:09.883Z,11.70
2019-03-03T14:10:38.099Z,11.80
2019-03-03T14:13:06.352Z,11.80
2019-03-03T14:15:34.594Z,11.90
2019-03-03T14:18:02.821Z,12.00
2019-03-03T14:20:31.068Z,12.00
2019-03-03T14:22:59.323Z,12.10
2019-03-03T14:25:27.560Z,12.10
2019-03-03T14:27:56.074Z,12.10
2019-03-03T14:30:27.485Z,12.10
2019-03-03T14:32:55.702Z,12.00
2019-03-03T14:35:23.923Z,12.10
2019-03-03T14:37:52.217Z,12.10
2019-03-03T14:40:23.163Z,12.00
2019-03-03T14:42:51.460Z,12.00
2019-03-03T14:45:19.751Z,12.00
2019-03-03T14:47:48.020Z,12.00
2019-03-03T14:50:20.662Z,12.00
2019-03-03T14:52:51.048Z,12.00
2019-03-03T14:55:20.014Z,12.00
2019-03-03T14:57:48.264Z,12.00
2019-03-03T15:00:28.548Z,12.00
2019-03-03T15:02:57.918Z,12.00
2019-03-03T15:05:26.143Z,12.00
2019-03-03T15:07:54.405Z,12.00
2019-03-03T15:10:22.622Z,12.00
2019-03-03T15:12:50.891Z,12.10
2019-03-03T15:15:21.314Z,12.10
2019-03-03T15:17:49.592Z,12.10
2019-03-03T15:20:17.850Z,12.10
2019-03-03T15:22:46.111Z,12.10
2019-03-03T15:25:14.862Z,12.10
2019-03-03T15:27:43.217Z,12.10
2019-03-03T15:30:21.350Z,12.20
2019-03-03T15:32:49.599Z,12.20
2019-03-03T15:35:17.873Z,12.20
2019-03-03T15:37:46.474Z,12.20
2019-03-03T15:40:19.551Z,12.30
2019-03-03T15:42:47.766Z,12.20
2019-03-03T15:45:20.725Z,12.10
2019-03-03T15:47:48.950Z,12.10
2019-03-03T15:50:18.165Z,12.10
2019-03-03T15:52:46.427Z,12.10
2019-03-03T15:55:16.598Z,12.10
2019-03-03T15:57:44.874Z,12.10
2019-03-03T16:00:19.069Z,12.10
2019-03-03T16:02:47.320Z,12.10
2019-03-03T16:05:16.207Z,12.20
2019-03-03T16:07:44.509Z,12.20
2019-03-03T16:10:21.209Z,12.20
2019-03-03T16:12:49.445Z,12.20
2019-03-03T16:15:18.058Z,12.20
2019-03-03T16:17:46.316Z,12.20
2019-03-03T16:20:19.754Z,12.10
2019-03-03T16:22:48.067Z,12.20
2019-03-03T16:25:23.502Z,12.20
2019-03-03T16:27:51.772Z,12.20
2019-03-03T16:30:21.099Z,12.20
2019-03-03T16:32:49.348Z,12.20
2019-03-03T16:35:17.604Z,12.10
2019-03-03T16:37:45.921Z,12.10
2019-03-03T16:40:16.293Z,12.10
2019-03-03T16:42:44.552Z,12.10
2019-03-03T16:45:14.356Z,12.10
2019-03-03T16:47:42.598Z,12.10
2019-03-03T16:50:15.463Z,12.10
2019-03-03T16:52:43.699Z,12.10
2019-03-03T16:55:13.661Z,12.10
2019-03-03T16:57:41.930Z,12.10
2019-03-03T17:00:13.490Z,12.10
2019-03-03T17:02:41.046Z,12.10
2019-03-03T17:05:12.227Z,12.20
2019-03-03T17:07:42.140Z,12.20
2019-03-03T17:10:11.021Z,12.10
2019-03-03T17:12:39.408Z,12.10
2019-03-03T17:15:15.726Z,12.20
2019-03-03T17:17:43.940Z,12.20
2019-03-03T17:20:12.187Z,12.20
2019-03-03T17:22:40.455Z,12.20
2019-03-03T17:25:11.703Z,12.20
2019-03-03T17:27:39.921Z,12.20
2019-03-03T17:30:13.618Z,12.20
2019-03-03T17:32:41.835Z,12.20
2019-03-03T17:35:10.472Z,12.20
2019-03-03T17:37:38.700Z,12.20
2019-03-03T17:40:13.545Z,12.10
2019-03-03T17:42:41.786Z,12.10
2019-03-03T17:45:13.413Z,12.20
2019-03-03T17:47:42.470Z,12.20
2019-03-03T17:50:12.946Z,12.20
2019-03-03T17:52:41.193Z,12.20
2019-03-03T17:55:10.451Z,12.20
2019-03-03T17:57:38.684Z,12.10
2019-03-03T18:00:18.437Z,12.20
2019-03-03T18:02:46.706Z,12.10
2019-03-03T18:05:16.359Z,12.10
2019-03-03T18:07:44.744Z,12.10
2019-03-03T18:10:13.133Z,12.20
2019-03-03T18:12:41.352Z,12.20
2019-03-03T18:15:12.167Z,12.20
2019-03-03T18:17:40.414Z,12.20
2019-03-03T18:20:13.766Z,12.10
2019-03-03T18:22:42.006Z,12.10
2019-03-03T18:25:12.175Z,12.10
2019-03-03T18:27:40.411Z,12.10
2019-03-03T18:30:12.096Z,12.10
2019-03-03T18:32:40.356Z,12.10
2019-03-03T18:35:08.629Z,12.10
2019-03-03T18:37:36.853Z,12.20
2019-03-03T18:40:08.287Z,12.10
2019-03-03T18:42:36.569Z,12.10
2019-03-03T18:45:08.094Z,12.10
2019-03-03T18:47:36.448Z,12.10
2019-03-03T18:50:07.949Z,12.10
2019-03-03T18:52:35.530Z,12.10
2019-03-03T18:55:05.600Z,12.10
2019-03-03T18:57:33.844Z,12.10
2019-03-03T19:00:02.123Z,12.20
2019-03-03T19:02:30.448Z,12.10
2019-03-03T19:04:58.668Z,12.20
2019-03-03T19:07:26.905Z,12.20
2019-03-03T19:09:55.150Z,12.20
2019-03-03T19:12:23.391Z,12.20
2019-03-03T19:14:51.663Z,12.20
2019-03-03T19:17:19.962Z,12.20
2019-03-03T19:19:48.210Z,12.20
2019-03-03T19:22:16.501Z,12.30
2019-03-03T19:24:44.796Z,12.20
2019-03-03T19:27:13.048Z,12.20
2019-03-03T19:29:41.343Z,12.10
2019-03-03T19:32:09.561Z,12.00
2019-03-03T19:34:37.824Z,12.10
2019-03-03T19:37:06.084Z,12.10
2019-03-03T19:39:34.361Z,12.10
2019-03-03T19:42:02.628Z,12.10
2019-03-03T19:44:30.889Z,12.20
2019-03-03T19:46:59.177Z,12.20
2019-03-03T19:49:27.441Z,12.30
2019-03-03T19:51:55.704Z,12.30
2019-03-03T19:54:24.074Z,12.30
2019-03-03T19:56:52.354Z,12.30
2019-03-03T19:59:20.867Z,12.40
2019-03-03T20:01:49.163Z,12.40
2019-03-03T20:04:17.455Z,12.40
2019-03-03T20:06:45.712Z,12.40
2019-03-03T20:09:15.407Z,12.40
2019-03-03T20:11:46.068Z,12.40
2019-03-03T20:14:13.635Z,12.40
2019-03-03T20:16:41.899Z,12.50
2019-03-03T20:19:10.122Z,12.50
2019-03-03T20:21:38.417Z,12.40
2019-03-03T20:24:06.708Z,12.40
2019-03-03T20:26:34.961Z,12.40
2019-03-03T20:29:03.181Z,12.40
2019-03-03T20:31:31.417Z,12.40
2019-03-03T20:33:59.689Z,12.40
2019-03-03T20:36:27.936Z,12.50
2019-03-03T20:38:56.190Z,12.50
2019-03-03T20:41:24.440Z,12.50
2019-03-03T20:43:52.654Z,12.50
2019-03-03T20:46:20.936Z,12.60
2019-03-03T20:48:49.208Z,12.50
2019-03-03T20:51:17.458Z,12.60
2019-03-03T20:53:45.789Z,12.50
2019-03-03T20:56:14.052Z,12.50
2019-03-03T20:58:42.289Z,12.50
2019-03-03T21:01:10.530Z,12.50
2019-03-03T21:03:38.798Z,12.60
2019-03-03T21:06:07.060Z,12.60
2019-03-03T21:08:35.354Z,12.60
2019-03-03T21:11:03.594Z,12.70
2019-03-03T21:13:31.805Z,12.70
2019-03-03T21:16:00.167Z,12.60
2019-03-03T21:18:28.468Z,12.40
2019-03-03T21:20:56.790Z,12.30
2019-03-03T21:23:25.015Z,12.20
2019-03-03T21:25:53.360Z,12.20
2019-03-03T21:28:21.590Z,12.20
2019-03-03T21:30:49.872Z,12.30
2019-03-03T21:33:18.151Z,12.30
2019-03-03T21:35:46.400Z,12.30
2019-03-03T21:38:14.619Z,12.40
2019-03-03T21:40:42.909Z,12.40
2019-03-03T21:43:11.144Z,12.40
2019-03-03T21:45:39.404Z,12.40
2019-03-03T21:48:07.744Z,12.50
2019-03-03T21:50:36.003Z,12.50
2019-03-03T21:53:04.248Z,12.50
2019-03-03T21:55:32.574Z,12.50
2019-03-03T21:58:00.816Z,12.60
2019-03-03T22:00:40.126Z,12.60
2019-03-03T22:03:08.401Z,12.70
2019-03-03T22:05:36.618Z,12.70
2019-03-03T22:08:04.851Z,12.70
2019-03-03T22:10:33.332Z,12.70
2019-03-03T22:13:06.788Z,12.70
2019-03-03T22:15:35.040Z,12.70
2019-03-03T22:18:03.308Z,12.80
2019-03-03T22:20:31.520Z,12.80
2019-03-03T22:23:01.513Z,12.90
2019-03-03T22:25:29.700Z,12.90
2019-03-03T22:27:57.919Z,12.90
2019-03-03T22:30:26.146Z,12.90
2019-03-03T22:32:54.424Z,12.90
2019-03-03T22:35:22.668Z,12.80
2019-03-03T22:37:51.363Z,12.80
2019-03-03T22:40:23.698Z,12.80
2019-03-03T22:42:51.957Z,12.80
2019-03-03T22:45:20.201Z,12.80
2019-03-03T22:47:48.480Z,12.80
2019-03-03T22:50:19.036Z,12.90
2019-03-03T22:52:47.330Z,12.90
2019-03-03T22:55:17.838Z,12.80
2019-03-03T22:57:46.104Z,12.80
2019-03-03T23:00:27.233Z,12.80
2019-03-03T23:02:55.539Z,12.90
2019-03-03T23:05:44.643Z,12.90
2019-03-03T23:08:16.169Z,13.00
2019-03-03T23:10:47.668Z,13.00
2019-03-03T23:13:16.855Z,13.00
2019-03-03T23:15:52.262Z,13.00
2019-03-03T23:18:35.266Z,13.00
2019-03-03T23:21:21.207Z,13.00
2019-03-03T23:24:18.253Z,13.00
2019-03-03T23:26:46.526Z,13.00
2019-03-03T23:29:14.761Z,13.00
2019-03-03T23:31:42.993Z,13.00
2019-03-03T23:34:12.108Z,13.00
2019-03-03T23:36:40.375Z,13.00
2019-03-03T23:39:08.614Z,13.00
2019-03-03T23:41:36.886Z,13.00
2019-03-03T23:44:05.170Z,13.00
2019-03-03T23:46:33.396Z,13.00
2019-03-03T23:49:01.652Z,13.00
2019-03-03T23:51:29.977Z,13.00
2019-03-03T23:53:58.201Z,13.00
2019-03-03T23:56:26.455Z,13.00
2019-03-03T23:58:55.062Z,13.00
